createdAt,value
2017-07-05T00:01:49.588Z,20.40
2017-07-05T00:04:16.996Z,20.43
2017-07-05T00:06:44.417Z,20.38
2017-07-05T00:09:11.859Z,20.34
2017-07-05T00:11:39.260Z,20.27
2017-07-05T00:14:06.668Z,20.35
2017-07-05T00:16:34.091Z,20.41
2017-07-05T00:19:01.540Z,20.31
2017-07-05T00:21:28.993Z,20.35
2017-07-05T00:23:56.473Z,20.31
2017-07-05T00:26:23.998Z,20.26
2017-07-05T00:28:52.036Z,20.17
2017-07-05T00:31:19.480Z,20.07
2017-07-05T00:33:46.918Z,20.09
2017-07-05T00:36:14.340Z,20.13
2017-07-05T00:38:41.757Z,20.06
2017-07-05T00:41:09.227Z,20.03
2017-07-05T00:43:36.642Z,19.94
2017-07-05T00:46:04.085Z,19.80
2017-07-05T00:48:31.488Z,19.73
2017-07-05T00:50:58.914Z,19.64
2017-07-05T00:53:26.331Z,19.66
2017-07-05T00:55:53.814Z,19.66
2017-07-05T00:58:21.252Z,19.69
2017-07-05T01:00:48.686Z,19.72
2017-07-05T01:03:16.127Z,19.78
2017-07-05T01:05:43.582Z,19.84
2017-07-05T01:08:11.023Z,19.81
2017-07-05T01:10:38.428Z,19.76
2017-07-05T01:13:05.861Z,19.67
2017-07-05T01:15:33.306Z,19.56
2017-07-05T01:18:00.735Z,19.57
2017-07-05T01:20:28.167Z,19.58
2017-07-05T01:22:55.580Z,19.64
2017-07-05T01:25:22.999Z,19.72
2017-07-05T01:27:50.461Z,19.74
2017-07-05T01:30:17.866Z,19.67
2017-07-05T01:32:45.280Z,19.65
2017-07-05T01:35:12.705Z,19.65
2017-07-05T01:37:40.156Z,19.68
2017-07-05T01:40:07.604Z,19.68
2017-07-05T01:42:35.869Z,19.63
2017-07-05T01:45:03.327Z,19.62
2017-07-05T01:47:30.769Z,19.52
2017-07-05T01:49:58.194Z,19.45
2017-07-05T01:52:25.648Z,19.44
2017-07-05T01:54:53.108Z,19.39
2017-07-05T01:57:20.517Z,19.38
2017-07-05T01:59:47.949Z,19.31
2017-07-05T02:02:15.392Z,19.27
2017-07-05T02:04:42.879Z,19.23
2017-07-05T02:07:10.242Z,19.03
2017-07-05T02:09:37.692Z,19.08
2017-07-05T02:12:05.135Z,19.16
2017-07-05T02:14:32.545Z,19.14
2017-07-05T02:16:59.984Z,19.11
2017-07-05T02:19:27.497Z,19.09
2017-07-05T02:21:54.974Z,19.08
2017-07-05T02:24:22.415Z,19.11
2017-07-05T02:26:49.896Z,19.11
2017-07-05T02:29:17.356Z,19.06
2017-07-05T02:31:44.775Z,19.06
2017-07-05T02:34:12.281Z,19.03
2017-07-05T02:36:39.711Z,18.98
2017-07-05T02:39:07.163Z,18.88
2017-07-05T02:41:34.577Z,18.88
2017-07-05T02:44:01.995Z,18.93
2017-07-05T02:46:29.431Z,18.85
2017-07-05T02:48:56.856Z,18.88
2017-07-05T02:51:24.268Z,18.91
2017-07-05T02:53:51.754Z,18.90
2017-07-05T02:56:19.172Z,18.76
2017-07-05T02:58:46.609Z,18.78
2017-07-05T03:01:14.036Z,18.77
2017-07-05T03:03:41.463Z,18.67
2017-07-05T03:06:08.928Z,18.55
2017-07-05T03:08:36.345Z,18.46
2017-07-05T03:11:03.788Z,18.46
2017-07-05T03:13:31.229Z,18.41
2017-07-05T03:15:58.677Z,18.38
2017-07-05T03:18:26.083Z,18.38
2017-07-05T03:20:53.497Z,18.45
2017-07-05T03:23:20.931Z,18.46
2017-07-05T03:25:48.378Z,18.48
2017-07-05T03:28:15.919Z,18.54
2017-07-05T03:30:43.452Z,18.60
2017-07-05T03:33:10.864Z,18.52
2017-07-05T03:35:38.278Z,18.56
2017-07-05T03:38:05.712Z,18.56
2017-07-05T03:40:33.120Z,18.46
2017-07-05T03:43:00.603Z,18.48
2017-07-05T03:45:28.017Z,18.48
2017-07-05T03:47:55.548Z,18.53
2017-07-05T03:50:22.989Z,18.43
2017-07-05T03:52:50.466Z,18.47
2017-07-05T03:55:17.949Z,18.39
2017-07-05T03:57:45.371Z,18.39
2017-07-05T04:00:12.788Z,18.50
2017-07-05T04:02:40.222Z,18.59
2017-07-05T04:05:07.769Z,18.67
2017-07-05T04:07:35.411Z,18.57
2017-07-05T04:10:02.831Z,18.57
2017-07-05T04:12:30.285Z,18.62
2017-07-05T04:14:57.695Z,18.67
2017-07-05T04:17:25.110Z,18.67
2017-07-05T04:19:52.541Z,18.76
2017-07-05T04:22:19.963Z,18.74
2017-07-05T04:24:47.578Z,18.66
2017-07-05T04:27:15.002Z,18.64
2017-07-05T04:29:42.472Z,18.73
2017-07-05T04:32:09.925Z,18.72
2017-07-05T04:34:37.387Z,18.76
2017-07-05T04:37:04.792Z,18.73
2017-07-05T04:39:32.216Z,18.73
2017-07-05T04:41:59.701Z,18.78
2017-07-05T04:44:27.217Z,18.84
2017-07-05T04:46:54.627Z,18.87
2017-07-05T04:49:22.081Z,18.95
2017-07-05T04:51:49.532Z,19.00
2017-07-05T04:54:16.942Z,19.10
2017-07-05T04:56:44.398Z,19.13
2017-07-05T04:59:11.952Z,19.08
2017-07-05T05:01:39.465Z,19.11
2017-07-05T05:04:06.908Z,19.13
2017-07-05T05:06:34.329Z,19.28
2017-07-05T05:09:01.795Z,19.41
2017-07-05T05:11:29.206Z,19.48
2017-07-05T05:13:56.625Z,19.56
2017-07-05T05:16:24.059Z,19.61
2017-07-05T05:18:52.313Z,19.67
2017-07-05T05:21:19.718Z,19.71
2017-07-05T05:23:47.165Z,19.79
2017-07-05T05:26:14.578Z,19.85
2017-07-05T05:28:42.074Z,19.89
2017-07-05T05:31:09.528Z,19.94
2017-07-05T05:33:36.982Z,20.04
2017-07-05T05:36:04.405Z,20.14
2017-07-05T05:38:31.861Z,20.21
2017-07-05T05:40:59.293Z,19.99
2017-07-05T05:43:26.740Z,20.03
2017-07-05T05:45:54.172Z,20.08
2017-07-05T05:48:21.598Z,20.03
2017-07-05T05:50:49.156Z,20.17
2017-07-05T05:53:16.744Z,20.30
2017-07-05T05:55:44.176Z,20.46
2017-07-05T05:58:11.580Z,20.54
2017-07-05T06:00:39.006Z,20.48
2017-07-05T06:03:06.443Z,20.49
2017-07-05T06:05:33.941Z,20.59
2017-07-05T06:08:01.388Z,20.57
2017-07-05T06:10:28.795Z,20.60
2017-07-05T06:12:56.277Z,20.79
2017-07-05T06:15:23.728Z,20.97
2017-07-05T06:17:51.164Z,21.19
2017-07-05T06:20:18.598Z,21.36
2017-07-05T06:22:46.033Z,21.53
2017-07-05T06:25:13.487Z,21.68
2017-07-05T06:27:40.891Z,21.71
2017-07-05T06:30:08.337Z,21.79
2017-07-05T06:32:35.786Z,21.90
2017-07-05T06:35:03.223Z,21.72
2017-07-05T06:37:30.637Z,21.85
2017-07-05T06:39:58.048Z,22.01
2017-07-05T06:42:25.501Z,22.08
2017-07-05T06:44:52.972Z,22.12
2017-07-05T06:47:20.384Z,22.20
2017-07-05T06:49:47.812Z,22.35
2017-07-05T06:52:15.252Z,22.44
2017-07-05T06:54:42.696Z,22.57
2017-07-05T06:57:10.174Z,22.60
2017-07-05T06:59:37.599Z,22.54
2017-07-05T07:02:05.049Z,22.73
2017-07-05T07:04:32.464Z,22.74
2017-07-05T07:06:59.893Z,22.90
2017-07-05T07:09:27.340Z,22.99
2017-07-05T07:11:54.797Z,22.94
2017-07-05T07:14:22.261Z,23.05
2017-07-05T07:16:49.689Z,23.21
2017-07-05T07:19:17.113Z,23.49
2017-07-05T07:21:44.557Z,23.51
2017-07-05T07:24:11.987Z,23.57
2017-07-05T07:26:39.425Z,23.75
2017-07-05T07:29:06.845Z,23.86
2017-07-05T07:31:34.318Z,23.89
2017-07-05T07:34:01.768Z,24.13
2017-07-05T07:36:29.214Z,24.36
2017-07-05T07:38:56.669Z,24.30
2017-07-05T07:41:24.104Z,24.46
2017-07-05T07:43:51.509Z,24.66
2017-07-05T07:46:18.977Z,24.79
2017-07-05T07:48:46.402Z,24.80
2017-07-05T07:51:13.861Z,24.85
2017-07-05T07:53:41.317Z,25.02
2017-07-05T07:56:08.745Z,25.21
2017-07-05T07:58:36.207Z,25.26
2017-07-05T08:01:03.620Z,25.36
2017-07-05T08:03:31.039Z,25.58
2017-07-05T08:05:58.495Z,25.69
2017-07-05T08:08:25.897Z,25.83
2017-07-05T08:10:53.346Z,25.93
2017-07-05T08:13:20.760Z,26.02
2017-07-05T08:15:48.216Z,25.94
2017-07-05T08:18:15.672Z,25.93
2017-07-05T08:20:43.113Z,26.07
2017-07-05T08:23:10.596Z,26.10
2017-07-05T08:25:38.005Z,26.33
2017-07-05T08:28:05.460Z,26.42
2017-07-05T08:30:32.896Z,26.58
2017-07-05T08:33:00.349Z,26.56
2017-07-05T08:35:27.793Z,26.73
2017-07-05T08:37:55.228Z,26.83
2017-07-05T08:40:22.635Z,26.91
2017-07-05T08:42:50.073Z,26.91
2017-07-05T08:45:17.576Z,27.07
2017-07-05T08:47:45.014Z,27.16
2017-07-05T08:50:12.473Z,27.25
2017-07-05T08:52:40.041Z,27.22
2017-07-05T08:55:07.653Z,27.45
2017-07-05T08:57:35.206Z,27.37
2017-07-05T09:00:02.687Z,27.46
2017-07-05T09:02:30.151Z,27.50
2017-07-05T09:04:57.566Z,27.67
2017-07-05T09:07:24.975Z,27.76
2017-07-05T09:09:52.413Z,27.88
2017-07-05T09:12:19.871Z,28.04
2017-07-05T09:14:47.399Z,28.15
2017-07-05T09:17:15.165Z,28.27
2017-07-05T09:19:42.640Z,28.28
2017-07-05T09:22:10.210Z,28.16
2017-07-05T09:24:37.658Z,28.35
2017-07-05T09:27:05.093Z,28.49
2017-07-05T09:29:32.526Z,28.67
2017-07-05T09:31:59.928Z,28.73
2017-07-05T09:34:27.402Z,28.73
2017-07-05T09:36:54.831Z,28.49
2017-07-05T09:39:22.357Z,28.62
2017-07-05T09:41:49.860Z,28.74
2017-07-05T09:44:17.298Z,28.82
2017-07-05T09:46:44.732Z,28.82
2017-07-05T09:49:12.200Z,28.99
2017-07-05T09:51:39.632Z,29.10
2017-07-05T09:54:07.021Z,29.37
2017-07-05T09:56:34.465Z,29.50
2017-07-05T09:59:01.900Z,29.14
2017-07-05T10:01:29.353Z,29.04
2017-07-05T10:03:56.773Z,29.01
2017-07-05T10:06:24.219Z,29.13
2017-07-05T10:08:51.645Z,29.45
2017-07-05T10:11:19.053Z,29.64
2017-07-05T10:13:46.614Z,29.81
2017-07-05T10:16:14.160Z,29.78
2017-07-05T10:18:41.599Z,29.94
2017-07-05T10:21:09.092Z,29.94
2017-07-05T10:23:36.781Z,30.18
2017-07-05T10:26:04.229Z,29.90
2017-07-05T10:28:32.170Z,29.78
2017-07-05T10:30:59.800Z,29.94
2017-07-05T10:33:27.282Z,30.27
2017-07-05T10:35:54.782Z,30.11
2017-07-05T10:38:22.310Z,29.80
2017-07-05T10:40:49.740Z,29.81
2017-07-05T10:43:17.229Z,29.74
2017-07-05T10:45:44.653Z,29.69
2017-07-05T10:48:12.108Z,29.54
2017-07-05T10:50:39.568Z,29.43
2017-07-05T10:53:06.969Z,29.30
2017-07-05T10:55:34.497Z,29.19
2017-07-05T10:58:01.930Z,29.20
2017-07-05T11:00:29.333Z,29.44
2017-07-05T11:02:56.803Z,29.73
2017-07-05T11:05:24.315Z,29.95
2017-07-05T11:07:51.792Z,30.06
2017-07-05T11:10:19.228Z,29.96
2017-07-05T11:12:46.693Z,29.83
2017-07-05T11:15:14.095Z,29.62
2017-07-05T11:17:41.611Z,29.60
2017-07-05T11:20:09.054Z,29.58
2017-07-05T11:22:36.508Z,29.96
2017-07-05T11:25:03.972Z,30.24
2017-07-05T11:27:31.416Z,30.57
2017-07-05T11:29:58.849Z,30.74
2017-07-05T11:32:26.297Z,30.75
2017-07-05T11:34:53.720Z,30.81
2017-07-05T11:37:21.308Z,30.81
2017-07-05T11:39:48.723Z,30.90
2017-07-05T11:42:16.141Z,31.01
2017-07-05T11:44:43.588Z,31.02
2017-07-05T11:47:11.007Z,31.15
2017-07-05T11:49:38.439Z,31.35
2017-07-05T11:52:05.862Z,31.36
2017-07-05T11:54:33.289Z,31.21
2017-07-05T11:57:00.712Z,31.08
2017-07-05T11:59:28.180Z,31.13
2017-07-05T12:01:55.592Z,31.19
2017-07-05T12:04:23.013Z,31.10
2017-07-05T12:06:50.457Z,31.33
2017-07-05T12:09:17.868Z,31.23
2017-07-05T12:11:45.324Z,30.68
2017-07-05T12:14:12.738Z,30.72
2017-07-05T12:16:40.179Z,30.83
2017-07-05T12:19:07.619Z,31.05
2017-07-05T12:21:35.061Z,30.82
2017-07-05T12:24:02.474Z,30.91
2017-07-05T12:26:29.908Z,30.97
2017-07-05T12:28:57.353Z,31.04
2017-07-05T12:31:24.845Z,30.94
2017-07-05T12:33:52.254Z,31.05
2017-07-05T12:36:19.679Z,31.40
2017-07-05T12:38:47.155Z,31.50
2017-07-05T12:41:14.588Z,31.69
2017-07-05T12:43:42.048Z,31.78
2017-07-05T12:46:09.531Z,31.61
2017-07-05T12:48:37.057Z,31.77
2017-07-05T12:51:04.484Z,32.42
2017-07-05T12:53:31.997Z,33.21
2017-07-05T12:55:59.491Z,33.34
2017-07-05T12:58:26.931Z,34.65
2017-07-05T13:00:54.330Z,36.88
2017-07-05T13:03:21.755Z,36.90
2017-07-05T13:05:49.197Z,35.44
2017-07-05T13:08:16.629Z,33.87
2017-07-05T13:10:44.076Z,32.96
2017-07-05T13:13:11.493Z,32.30
2017-07-05T13:15:38.933Z,32.65
2017-07-05T13:18:06.430Z,33.05
2017-07-05T13:20:33.854Z,32.32
2017-07-05T13:23:01.353Z,32.06
2017-07-05T13:25:28.781Z,31.67
2017-07-05T13:27:56.196Z,31.71
2017-07-05T13:30:23.644Z,32.16
2017-07-05T13:32:51.072Z,32.84
2017-07-05T13:35:18.486Z,33.69
2017-07-05T13:37:45.952Z,33.10
2017-07-05T13:40:13.366Z,32.23
2017-07-05T13:42:40.805Z,32.28
2017-07-05T13:45:08.314Z,32.18
2017-07-05T13:47:35.735Z,32.13
2017-07-05T13:50:03.243Z,32.17
2017-07-05T13:57:50.076Z,31.66
2017-07-05T14:00:17.559Z,31.73
2017-07-05T14:02:44.980Z,32.50
2017-07-05T14:05:12.429Z,32.91
2017-07-05T14:07:39.976Z,32.90
2017-07-05T14:10:07.468Z,33.75
2017-07-05T14:12:34.931Z,34.25
2017-07-05T14:15:02.380Z,33.83
2017-07-05T14:17:29.870Z,34.13
2017-07-05T14:19:57.373Z,33.67
2017-07-05T14:22:24.832Z,34.26
2017-07-05T14:24:52.305Z,34.79
2017-07-05T14:27:19.774Z,35.15
2017-07-05T14:29:47.277Z,34.98
2017-07-05T14:32:15.072Z,34.27
2017-07-05T14:34:43.086Z,34.03
2017-07-05T14:37:10.619Z,34.79
2017-07-05T14:39:38.201Z,35.20
2017-07-05T14:42:05.627Z,35.58
2017-07-05T14:44:33.145Z,35.74
2017-07-05T14:47:00.665Z,34.90
2017-07-05T14:49:28.255Z,35.08
2017-07-05T14:51:55.781Z,35.31
2017-07-05T14:54:23.280Z,35.39
2017-07-05T14:56:50.752Z,35.25
2017-07-05T14:59:18.192Z,35.02
2017-07-05T15:01:45.605Z,35.22
2017-07-05T15:04:13.041Z,35.30
2017-07-05T15:06:40.479Z,35.05
2017-07-05T15:09:08.033Z,34.78
2017-07-05T15:11:36.271Z,34.53
2017-07-05T15:14:03.689Z,34.00
2017-07-05T15:16:31.140Z,34.09
2017-07-05T15:18:58.562Z,34.20
2017-07-05T15:21:25.968Z,34.12
2017-07-05T15:23:53.414Z,34.12
2017-07-05T15:26:20.932Z,33.81
2017-07-05T15:28:48.328Z,33.90
2017-07-05T15:31:15.808Z,33.65
2017-07-05T15:33:43.249Z,33.11
2017-07-05T15:36:11.316Z,33.28
2017-07-05T15:38:38.871Z,33.66
2017-07-05T15:41:07.025Z,33.42
2017-07-05T15:43:34.460Z,33.41
2017-07-05T15:46:02.945Z,33.25
2017-07-05T15:48:30.443Z,33.29
2017-07-05T15:50:57.886Z,32.80
2017-07-05T15:53:25.837Z,32.51
2017-07-05T15:55:53.344Z,32.63
2017-07-05T15:58:20.841Z,32.52
2017-07-05T16:00:48.340Z,32.24
2017-07-05T16:03:15.822Z,32.06
2017-07-05T16:05:43.249Z,32.11
2017-07-05T16:08:10.668Z,32.17
2017-07-05T16:10:38.127Z,32.32
2017-07-05T16:13:05.549Z,32.56
2017-07-05T16:15:33.146Z,32.54
2017-07-05T16:18:00.578Z,32.55
2017-07-05T16:20:28.029Z,32.56
2017-07-05T16:22:55.488Z,32.46
2017-07-05T16:25:22.993Z,32.50
2017-07-05T16:27:50.426Z,32.23
2017-07-05T16:30:17.849Z,32.17
2017-07-05T16:32:45.336Z,31.99
2017-07-05T16:35:12.880Z,31.81
2017-07-05T16:37:40.352Z,31.76
2017-07-05T16:40:07.776Z,31.62
2017-07-05T16:42:35.216Z,31.71
2017-07-05T16:45:02.650Z,31.59
2017-07-05T16:47:30.092Z,31.52
2017-07-05T16:49:57.492Z,31.61
2017-07-05T16:52:24.987Z,31.68
2017-07-05T16:54:52.568Z,31.46
2017-07-05T16:57:20.072Z,31.58
2017-07-05T16:59:47.500Z,31.54
2017-07-05T17:02:14.964Z,31.63
2017-07-05T17:04:43.005Z,31.49
2017-07-05T17:07:10.438Z,31.45
2017-07-05T17:09:37.864Z,30.97
2017-07-05T17:12:05.333Z,31.19
2017-07-05T17:14:32.779Z,31.12
2017-07-05T17:17:00.189Z,31.09
2017-07-05T17:19:27.656Z,31.18
2017-07-05T17:21:55.117Z,31.04
2017-07-05T17:24:22.517Z,31.01
2017-07-05T17:26:50.033Z,31.09
2017-07-05T17:29:17.508Z,30.99
2017-07-05T17:31:44.952Z,30.81
2017-07-05T17:34:12.841Z,30.67
2017-07-05T17:36:40.281Z,30.54
2017-07-05T17:39:07.733Z,30.65
2017-07-05T17:41:35.186Z,30.61
2017-07-05T17:44:02.635Z,30.55
2017-07-05T17:46:30.059Z,30.55
2017-07-05T17:48:57.475Z,30.59
2017-07-05T17:51:24.915Z,30.58
2017-07-05T17:53:52.328Z,30.64
2017-07-05T17:56:19.762Z,30.64
2017-07-05T17:58:47.225Z,30.48
2017-07-05T18:01:14.648Z,30.45
2017-07-05T18:03:42.118Z,30.36
2017-07-05T18:06:09.528Z,30.28
2017-07-05T18:08:36.966Z,30.18
2017-07-05T18:11:04.401Z,30.16
2017-07-05T18:13:31.861Z,30.09
2017-07-05T18:15:59.314Z,30.07
2017-07-05T18:18:26.727Z,30.02
2017-07-05T18:20:54.254Z,29.83
2017-07-05T18:23:21.706Z,29.83
2017-07-05T18:25:49.140Z,29.73
2017-07-05T18:28:16.564Z,29.70
2017-07-05T18:30:44.013Z,29.69
2017-07-05T18:33:11.440Z,29.54
2017-07-05T18:35:38.893Z,29.55
2017-07-05T18:38:06.340Z,29.49
2017-07-05T18:40:33.752Z,29.27
2017-07-05T18:43:01.214Z,29.17
2017-07-05T18:45:28.672Z,29.06
2017-07-05T18:47:56.069Z,29.00
2017-07-05T18:50:23.544Z,29.11
2017-07-05T18:52:50.981Z,29.08
2017-07-05T18:55:18.461Z,29.07
2017-07-05T18:57:45.945Z,29.06
2017-07-05T19:00:13.355Z,29.03
2017-07-05T19:02:40.819Z,29.04
2017-07-05T19:05:08.253Z,29.05
2017-07-05T19:07:35.732Z,29.04
2017-07-05T19:10:03.249Z,29.01
2017-07-05T19:12:30.665Z,28.96
2017-07-05T19:14:58.098Z,28.88
2017-07-05T19:17:25.537Z,28.85
2017-07-05T19:19:53.007Z,28.80
2017-07-05T19:22:20.424Z,28.75
2017-07-05T19:24:47.855Z,28.70
2017-07-05T19:27:15.259Z,28.61
2017-07-05T19:29:42.734Z,28.52
2017-07-05T19:32:10.301Z,28.49
2017-07-05T19:34:37.760Z,28.42
2017-07-05T19:37:05.240Z,28.38
2017-07-05T19:39:32.932Z,28.30
2017-07-05T19:42:00.364Z,28.21
2017-07-05T19:44:27.813Z,28.09
2017-07-05T19:46:55.293Z,27.94
2017-07-05T19:49:22.778Z,27.81
2017-07-05T19:51:50.234Z,27.68
2017-07-05T19:54:17.719Z,27.56
2017-07-05T19:56:45.280Z,27.52
2017-07-05T19:59:12.727Z,27.43
2017-07-05T20:01:40.181Z,27.34
2017-07-05T20:04:07.670Z,27.26
2017-07-05T20:06:35.139Z,27.12
2017-07-05T20:09:02.568Z,27.06
2017-07-05T20:11:29.993Z,26.98
2017-07-05T20:13:57.489Z,26.87
2017-07-05T20:16:24.913Z,26.77
2017-07-05T20:18:52.445Z,26.79
2017-07-05T20:21:19.869Z,26.79
2017-07-05T20:23:47.428Z,26.71
2017-07-05T20:26:14.896Z,26.65
2017-07-05T20:28:42.356Z,26.53
2017-07-05T20:31:09.794Z,26.53
2017-07-05T20:33:37.254Z,26.38
2017-07-05T20:36:04.748Z,26.32
2017-07-05T20:38:32.303Z,26.18
2017-07-05T20:40:59.754Z,26.12
2017-07-05T20:43:27.269Z,26.13
2017-07-05T20:45:54.708Z,26.11
2017-07-05T20:48:22.149Z,25.93
2017-07-05T20:50:49.569Z,25.93
2017-07-05T20:53:17.197Z,25.81
2017-07-05T20:55:44.657Z,25.73
2017-07-05T20:58:12.082Z,25.63
2017-07-05T21:00:39.723Z,25.68
2017-07-05T21:03:07.095Z,25.67
2017-07-05T21:05:34.532Z,25.63
2017-07-05T21:08:01.980Z,25.63
2017-07-05T21:10:29.389Z,25.62
2017-07-05T21:12:56.870Z,25.60
2017-07-05T21:15:24.295Z,25.48
2017-07-05T21:17:51.701Z,25.44
2017-07-05T21:20:19.214Z,25.30
2017-07-05T21:22:46.630Z,25.24
2017-07-05T21:25:14.071Z,25.12
2017-07-05T21:27:41.507Z,25.12
2017-07-05T21:30:08.977Z,25.18
2017-07-05T21:32:36.389Z,25.18
2017-07-05T21:35:03.816Z,25.04
2017-07-05T21:37:31.313Z,25.06
2017-07-05T21:39:58.723Z,25.03
2017-07-05T21:42:26.168Z,24.84
2017-07-05T21:44:53.589Z,24.79
2017-07-05T21:47:20.987Z,24.86
2017-07-05T21:49:48.433Z,24.83
2017-07-05T21:52:15.877Z,24.77
2017-07-05T21:54:43.325Z,24.58
2017-07-05T21:57:10.782Z,24.62
2017-07-05T21:59:38.183Z,24.55
2017-07-05T22:02:05.595Z,24.52
2017-07-05T22:04:33.060Z,24.34
2017-07-05T22:07:00.516Z,24.30
2017-07-05T22:09:27.915Z,24.25
2017-07-05T22:11:55.465Z,24.22
2017-07-05T22:14:22.937Z,24.11
2017-07-05T22:16:50.388Z,24.12
2017-07-05T22:19:17.841Z,24.00
2017-07-05T22:21:45.272Z,23.98
2017-07-05T22:24:12.729Z,23.64
2017-07-05T22:26:40.149Z,23.74
2017-07-05T22:29:07.570Z,23.77
2017-07-05T22:31:35.021Z,23.73
2017-07-05T22:34:02.462Z,23.70
2017-07-05T22:36:29.982Z,23.68
2017-07-05T22:38:57.461Z,23.77
2017-07-05T22:41:24.929Z,23.76
2017-07-05T22:43:52.351Z,23.76
2017-07-05T22:46:19.776Z,23.74
2017-07-05T22:48:47.185Z,23.69
2017-07-05T22:51:14.641Z,23.35
2017-07-05T22:53:42.073Z,23.48
2017-07-05T22:56:09.628Z,23.43
2017-07-05T22:58:37.042Z,23.45
2017-07-05T23:01:04.456Z,23.47
2017-07-05T23:03:31.894Z,23.41
2017-07-05T23:05:59.301Z,23.40
2017-07-05T23:08:26.753Z,23.30
2017-07-05T23:10:54.208Z,23.24
2017-07-05T23:13:21.761Z,23.22
2017-07-05T23:15:49.160Z,23.08
2017-07-05T23:18:16.575Z,23.00
2017-07-05T23:20:44.041Z,23.07
2017-07-05T23:23:11.488Z,23.07
2017-07-05T23:25:38.893Z,23.06
2017-07-05T23:28:06.394Z,23.11
2017-07-05T23:30:33.824Z,23.06
2017-07-05T23:33:01.269Z,23.05
2017-07-05T23:35:28.682Z,22.99
2017-07-05T23:37:56.107Z,22.96
2017-07-05T23:40:23.549Z,22.87
2017-07-05T23:42:50.960Z,22.85
2017-07-05T23:45:18.425Z,22.80
2017-07-05T23:47:45.944Z,22.79
2017-07-05T23:50:13.377Z,22.68
2017-07-05T23:52:40.855Z,22.66
2017-07-05T23:55:08.262Z,22.62
2017-07-05T23:57:35.672Z,22.49
